sensor_id;sensor_type;location;lat;lon;timestamp;P1;durP1;ratioP1;P2;durP2;ratioP2
20535;SDS011;10426;49.420;8.390;2023-01-31T00:00:21;9.57;;;7.40;;
20535;SDS011;10426;49.420;8.390;2023-01-31T00:02:48;10.95;;;7.93;;
20535;SDS011;10426;49.420;8.390;2023-01-31T00:05:15;11.20;;;7.72;;
20535;SDS011;10426;49.420;8.390;2023-01-31T00:07:41;9.75;;;7.80;;
20535;SDS011;10426;49.420;8.390;2023-01-31T00:10:08;10.20;;;7.30;;
20535;SDS011;10426;49.420;8.390;2023-01-31T00:12:35;11.35;;;7.57;;
20535;SDS011;10426;49.420;8.390;2023-01-31T00:15:02;10.45;;;7.68;;
20535;SDS011;10426;49.420;8.390;2023-01-31T00:17:30;11.48;;;8.10;;
20535;SDS011;10426;49.420;8.390;2023-01-31T00:19:56;11.25;;;7.72;;
20535;SDS011;10426;49.420;8.390;2023-01-31T00:22:23;11.32;;;8.20;;
20535;SDS011;10426;49.420;8.390;2023-01-31T00:24:49;12.45;;;8.00;;
20535;SDS011;10426;49.420;8.390;2023-01-31T00:27:16;10.97;;;7.60;;
20535;SDS011;10426;49.420;8.390;2023-01-31T00:29:44;12.93;;;7.80;;
20535;SDS011;10426;49.420;8.390;2023-01-31T00:32:10;12.10;;;7.50;;
20535;SDS011;10426;49.420;8.390;2023-01-31T00:34:38;11.70;;;7.78;;
20535;SDS011;10426;49.420;8.390;2023-01-31T00:37:05;13.40;;;7.68;;
20535;SDS011;10426;49.420;8.390;2023-01-31T00:39:31;12.35;;;7.55;;
20535;SDS011;10426;49.420;8.390;2023-01-31T00:41:58;12.48;;;7.05;;
20535;SDS011;10426;49.420;8.390;2023-01-31T00:44:24;9.45;;;7.10;;
20535;SDS011;10426;49.420;8.390;2023-01-31T00:46:53;10.80;;;7.22;;
20535;SDS011;10426;49.420;8.390;2023-01-31T00:49:19;10.80;;;7.10;;
20535;SDS011;10426;49.420;8.390;2023-01-31T00:51:47;13.45;;;7.60;;
20535;SDS011;10426;49.420;8.390;2023-01-31T00:54:14;11.80;;;7.53;;
20535;SDS011;10426;49.420;8.390;2023-01-31T00:56:40;11.07;;;7.00;;
20535;SDS011;10426;49.420;8.390;2023-01-31T00:59:09;11.35;;;7.10;;
20535;SDS011;10426;49.420;8.390;2023-01-31T01:01:35;10.93;;;7.07;;
20535;SDS011;10426;49.420;8.390;2023-01-31T01:04:03;9.57;;;7.13;;
20535;SDS011;10426;49.420;8.390;2023-01-31T01:06:29;11.63;;;7.57;;
20535;SDS011;10426;49.420;8.390;2023-01-31T01:08:57;9.68;;;7.22;;
20535;SDS011;10426;49.420;8.390;2023-01-31T01:11:25;11.88;;;7.60;;
20535;SDS011;10426;49.420;8.390;2023-01-31T01:13:52;11.27;;;7.43;;
20535;SDS011;10426;49.420;8.390;2023-01-31T01:16:19;10.40;;;7.57;;
20535;SDS011;10426;49.420;8.390;2023-01-31T01:18:46;10.18;;;7.40;;
20535;SDS011;10426;49.420;8.390;2023-01-31T01:21:16;10.98;;;7.57;;
20535;SDS011;10426;49.420;8.390;2023-01-31T01:23:43;11.27;;;7.50;;
20535;SDS011;10426;49.420;8.390;2023-01-31T01:26:13;11.15;;;7.70;;
20535;SDS011;10426;49.420;8.390;2023-01-31T01:28:40;10.63;;;7.93;;
20535;SDS011;10426;49.420;8.390;2023-01-31T01:31:07;11.50;;;7.25;;
20535;SDS011;10426;49.420;8.390;2023-01-31T01:33:34;11.63;;;6.93;;
20535;SDS011;10426;49.420;8.390;2023-01-31T01:36:01;9.73;;;6.88;;
20535;SDS011;10426;49.420;8.390;2023-01-31T01:38:28;9.63;;;6.80;;
20535;SDS011;10426;49.420;8.390;2023-01-31T01:40:54;12.60;;;7.13;;
20535;SDS011;10426;49.420;8.390;2023-01-31T01:46:04;10.43;;;6.38;;
20535;SDS011;10426;49.420;8.390;2023-01-31T01:48:31;12.40;;;6.63;;
20535;SDS011;10426;49.420;8.390;2023-01-31T01:50:57;11.05;;;6.57;;
20535;SDS011;10426;49.420;8.390;2023-01-31T01:53:24;9.30;;;6.30;;
20535;SDS011;10426;49.420;8.390;2023-01-31T01:55:53;10.77;;;6.80;;
20535;SDS011;10426;49.420;8.390;2023-01-31T01:58:21;10.73;;;6.38;;
20535;SDS011;10426;49.420;8.390;2023-01-31T02:00:48;10.65;;;6.55;;
20535;SDS011;10426;49.420;8.390;2023-01-31T02:03:16;9.52;;;6.00;;
20535;SDS011;10426;49.420;8.390;2023-01-31T02:05:44;9.68;;;5.97;;
20535;SDS011;10426;49.420;8.390;2023-01-31T02:08:11;9.40;;;5.70;;
20535;SDS011;10426;49.420;8.390;2023-01-31T02:10:39;12.65;;;6.65;;
20535;SDS011;10426;49.420;8.390;2023-01-31T02:13:07;10.85;;;5.95;;
20535;SDS011;10426;49.420;8.390;2023-01-31T02:15:34;10.07;;;5.35;;
20535;SDS011;10426;49.420;8.390;2023-01-31T02:18:00;9.98;;;5.60;;
20535;SDS011;10426;49.420;8.390;2023-01-31T02:20:36;10.68;;;5.78;;
20535;SDS011;10426;49.420;8.390;2023-01-31T02:23:15;11.80;;;5.47;;
20535;SDS011;10426;49.420;8.390;2023-01-31T02:26:00;10.85;;;5.93;;
20535;SDS011;10426;49.420;8.390;2023-01-31T02:28:41;9.77;;;5.40;;
20535;SDS011;10426;49.420;8.390;2023-01-31T02:31:23;11.13;;;5.57;;
20535;SDS011;10426;49.420;8.390;2023-01-31T02:33:56;11.77;;;5.95;;
20535;SDS011;10426;49.420;8.390;2023-01-31T02:36:29;10.07;;;5.70;;
20535;SDS011;10426;49.420;8.390;2023-01-31T02:39:02;10.47;;;5.33;;
20535;SDS011;10426;49.420;8.390;2023-01-31T02:41:34;13.93;;;5.88;;
20535;SDS011;10426;49.420;8.390;2023-01-31T02:44:05;12.55;;;5.57;;
20535;SDS011;10426;49.420;8.390;2023-01-31T02:46:54;13.13;;;5.70;;
20535;SDS011;10426;49.420;8.390;2023-01-31T02:49:23;11.90;;;5.65;;
20535;SDS011;10426;49.420;8.390;2023-01-31T02:52:02;8.32;;;5.25;;
20535;SDS011;10426;49.420;8.390;2023-01-31T02:54:44;11.97;;;5.70;;
20535;SDS011;10426;49.420;8.390;2023-01-31T02:57:31;10.63;;;5.80;;
20535;SDS011;10426;49.420;8.390;2023-01-31T02:59:58;10.77;;;5.95;;
20535;SDS011;10426;49.420;8.390;2023-01-31T03:02:25;10.30;;;6.00;;
20535;SDS011;10426;49.420;8.390;2023-01-31T03:04:53;10.10;;;6.60;;
20535;SDS011;10426;49.420;8.390;2023-01-31T03:07:19;10.88;;;6.47;;
20535;SDS011;10426;49.420;8.390;2023-01-31T03:09:53;13.27;;;6.67;;
20535;SDS011;10426;49.420;8.390;2023-01-31T03:12:31;9.65;;;6.20;;
20535;SDS011;10426;49.420;8.390;2023-01-31T03:15:15;12.10;;;6.13;;
20535;SDS011;10426;49.420;8.390;2023-01-31T03:17:48;11.68;;;6.18;;
20535;SDS011;10426;49.420;8.390;2023-01-31T03:20:17;12.40;;;6.45;;
20535;SDS011;10426;49.420;8.390;2023-01-31T03:22:46;11.85;;;6.43;;
20535;SDS011;10426;49.420;8.390;2023-01-31T03:25:16;12.90;;;6.65;;
20535;SDS011;10426;49.420;8.390;2023-01-31T03:27:44;12.77;;;6.70;;
20535;SDS011;10426;49.420;8.390;2023-01-31T03:30:14;11.77;;;6.47;;
20535;SDS011;10426;49.420;8.390;2023-01-31T03:32:43;12.05;;;6.32;;
20535;SDS011;10426;49.420;8.390;2023-01-31T03:35:10;10.65;;;6.18;;
20535;SDS011;10426;49.420;8.390;2023-01-31T03:37:40;13.07;;;6.43;;
20535;SDS011;10426;49.420;8.390;2023-01-31T03:40:09;13.90;;;6.05;;
20535;SDS011;10426;49.420;8.390;2023-01-31T03:42:39;12.37;;;6.33;;
20535;SDS011;10426;49.420;8.390;2023-01-31T03:45:08;10.13;;;6.50;;
20535;SDS011;10426;49.420;8.390;2023-01-31T03:47:36;9.43;;;6.82;;
20535;SDS011;10426;49.420;8.390;2023-01-31T03:50:04;11.13;;;6.78;;
20535;SDS011;10426;49.420;8.390;2023-01-31T03:52:34;13.33;;;7.00;;
20535;SDS011;10426;49.420;8.390;2023-01-31T03:55:04;14.77;;;6.83;;
20535;SDS011;10426;49.420;8.390;2023-01-31T03:57:33;9.00;;;6.30;;
20535;SDS011;10426;49.420;8.390;2023-01-31T04:00:02;10.30;;;5.78;;
20535;SDS011;10426;49.420;8.390;2023-01-31T04:02:32;9.53;;;6.33;;
20535;SDS011;10426;49.420;8.390;2023-01-31T04:05:01;9.52;;;5.90;;
20535;SDS011;10426;49.420;8.390;2023-01-31T04:07:29;12.00;;;6.15;;
20535;SDS011;10426;49.420;8.390;2023-01-31T04:09:56;10.35;;;6.32;;
20535;SDS011;10426;49.420;8.390;2023-01-31T04:12:24;10.32;;;5.95;;
20535;SDS011;10426;49.420;8.390;2023-01-31T04:14:51;8.25;;;5.93;;
20535;SDS011;10426;49.420;8.390;2023-01-31T04:17:17;16.55;;;6.70;;
20535;SDS011;10426;49.420;8.390;2023-01-31T04:19:44;10.13;;;6.10;;
20535;SDS011;10426;49.420;8.390;2023-01-31T04:22:10;9.43;;;6.53;;
20535;SDS011;10426;49.420;8.390;2023-01-31T04:24:37;8.95;;;6.47;;
20535;SDS011;10426;49.420;8.390;2023-01-31T04:27:04;10.23;;;6.47;;
20535;SDS011;10426;49.420;8.390;2023-01-31T04:29:32;11.63;;;6.77;;
20535;SDS011;10426;49.420;8.390;2023-01-31T04:31:58;10.40;;;6.57;;
20535;SDS011;10426;49.420;8.390;2023-01-31T04:34:25;11.13;;;6.50;;
20535;SDS011;10426;49.420;8.390;2023-01-31T04:36:51;10.83;;;6.60;;
20535;SDS011;10426;49.420;8.390;2023-01-31T04:39:18;13.00;;;6.53;;
20535;SDS011;10426;49.420;8.390;2023-01-31T04:41:45;10.15;;;6.40;;
20535;SDS011;10426;49.420;8.390;2023-01-31T04:44:11;11.32;;;6.43;;
20535;SDS011;10426;49.420;8.390;2023-01-31T04:46:39;10.70;;;6.35;;
20535;SDS011;10426;49.420;8.390;2023-01-31T04:49:06;8.00;;;5.93;;
20535;SDS011;10426;49.420;8.390;2023-01-31T04:51:32;8.25;;;6.03;;
20535;SDS011;10426;49.420;8.390;2023-01-31T04:53:59;9.68;;;6.40;;
20535;SDS011;10426;49.420;8.390;2023-01-31T04:56:26;11.38;;;6.53;;
20535;SDS011;10426;49.420;8.390;2023-01-31T04:58:52;11.45;;;6.55;;
20535;SDS011;10426;49.420;8.390;2023-01-31T05:01:19;10.70;;;6.13;;
20535;SDS011;10426;49.420;8.390;2023-01-31T05:03:47;12.13;;;6.53;;
20535;SDS011;10426;49.420;8.390;2023-01-31T05:06:13;10.63;;;6.82;;
20535;SDS011;10426;49.420;8.390;2023-01-31T05:08:40;13.23;;;7.13;;
20535;SDS011;10426;49.420;8.390;2023-01-31T05:11:07;11.20;;;6.77;;
20535;SDS011;10426;49.420;8.390;2023-01-31T05:13:33;12.10;;;7.30;;
20535;SDS011;10426;49.420;8.390;2023-01-31T05:16:04;11.88;;;7.88;;
20535;SDS011;10426;49.420;8.390;2023-01-31T05:18:30;13.80;;;8.25;;
20535;SDS011;10426;49.420;8.390;2023-01-31T05:20:58;12.10;;;8.52;;
20535;SDS011;10426;49.420;8.390;2023-01-31T05:23:25;13.15;;;8.52;;
20535;SDS011;10426;49.420;8.390;2023-01-31T05:25:51;12.88;;;8.70;;
20535;SDS011;10426;49.420;8.390;2023-01-31T05:28:18;13.30;;;8.80;;
20535;SDS011;10426;49.420;8.390;2023-01-31T05:30:45;13.43;;;10.02;;
20535;SDS011;10426;49.420;8.390;2023-01-31T05:33:11;16.60;;;10.15;;
20535;SDS011;10426;49.420;8.390;2023-01-31T05:35:38;16.45;;;10.05;;
20535;SDS011;10426;49.420;8.390;2023-01-31T05:38:08;16.40;;;10.43;;
20535;SDS011;10426;49.420;8.390;2023-01-31T05:40:35;19.50;;;11.27;;
20535;SDS011;10426;49.420;8.390;2023-01-31T05:43:01;15.95;;;10.57;;
20535;SDS011;10426;49.420;8.390;2023-01-31T05:45:28;18.50;;;11.20;;
20535;SDS011;10426;49.420;8.390;2023-01-31T05:47:55;15.65;;;11.00;;
20535;SDS011;10426;49.420;8.390;2023-01-31T05:50:22;15.88;;;10.52;;
20535;SDS011;10426;49.420;8.390;2023-01-31T05:52:49;19.02;;;11.70;;
20535;SDS011;10426;49.420;8.390;2023-01-31T05:55:17;16.90;;;11.05;;
20535;SDS011;10426;49.420;8.390;2023-01-31T05:57:44;18.83;;;11.30;;
20535;SDS011;10426;49.420;8.390;2023-01-31T06:00:11;18.33;;;11.95;;
20535;SDS011;10426;49.420;8.390;2023-01-31T06:02:38;18.92;;;12.25;;
20535;SDS011;10426;49.420;8.390;2023-01-31T06:05:06;17.92;;;12.23;;
20535;SDS011;10426;49.420;8.390;2023-01-31T06:07:33;16.83;;;10.88;;
20535;SDS011;10426;49.420;8.390;2023-01-31T06:09:59;17.20;;;11.98;;
20535;SDS011;10426;49.420;8.390;2023-01-31T06:12:27;15.93;;;11.52;;
20535;SDS011;10426;49.420;8.390;2023-01-31T06:14:54;16.02;;;11.77;;
20535;SDS011;10426;49.420;8.390;2023-01-31T06:17:20;17.73;;;11.75;;
20535;SDS011;10426;49.420;8.390;2023-01-31T06:19:48;16.30;;;11.32;;
20535;SDS011;10426;49.420;8.390;2023-01-31T06:22:14;15.30;;;10.55;;
20535;SDS011;10426;49.420;8.390;2023-01-31T06:24:41;15.45;;;10.43;;
20535;SDS011;10426;49.420;8.390;2023-01-31T06:27:08;15.93;;;10.43;;
20535;SDS011;10426;49.420;8.390;2023-01-31T06:29:36;13.53;;;9.77;;
20535;SDS011;10426;49.420;8.390;2023-01-31T06:32:02;14.98;;;9.95;;
20535;SDS011;10426;49.420;8.390;2023-01-31T06:34:29;14.48;;;10.63;;
20535;SDS011;10426;49.420;8.390;2023-01-31T06:36:56;13.05;;;9.80;;
20535;SDS011;10426;49.420;8.390;2023-01-31T06:39:23;14.68;;;10.40;;
20535;SDS011;10426;49.420;8.390;2023-01-31T06:41:50;15.90;;;9.87;;
20535;SDS011;10426;49.420;8.390;2023-01-31T06:44:16;14.38;;;10.25;;
20535;SDS011;10426;49.420;8.390;2023-01-31T06:46:44;15.30;;;9.93;;
20535;SDS011;10426;49.420;8.390;2023-01-31T06:49:11;15.65;;;9.80;;
20535;SDS011;10426;49.420;8.390;2023-01-31T06:51:38;14.07;;;9.25;;
20535;SDS011;10426;49.420;8.390;2023-01-31T06:54:05;14.63;;;10.05;;
20535;SDS011;10426;49.420;8.390;2023-01-31T06:56:32;16.50;;;10.15;;
20535;SDS011;10426;49.420;8.390;2023-01-31T06:58:58;15.65;;;9.85;;
20535;SDS011;10426;49.420;8.390;2023-01-31T07:01:25;12.18;;;9.50;;
20535;SDS011;10426;49.420;8.390;2023-01-31T07:03:53;15.07;;;10.30;;
20535;SDS011;10426;49.420;8.390;2023-01-31T07:06:19;15.90;;;9.35;;
20535;SDS011;10426;49.420;8.390;2023-01-31T07:08:47;15.05;;;9.98;;
20535;SDS011;10426;49.420;8.390;2023-01-31T07:11:14;13.73;;;9.27;;
20535;SDS011;10426;49.420;8.390;2023-01-31T07:13:40;13.98;;;9.70;;
20535;SDS011;10426;49.420;8.390;2023-01-31T07:16:07;15.27;;;9.75;;
20535;SDS011;10426;49.420;8.390;2023-01-31T07:18:33;15.60;;;10.23;;
20535;SDS011;10426;49.420;8.390;2023-01-31T07:21:01;12.07;;;9.50;;
20535;SDS011;10426;49.420;8.390;2023-01-31T07:23:28;12.85;;;9.63;;
20535;SDS011;10426;49.420;8.390;2023-01-31T07:25:54;15.82;;;9.63;;
20535;SDS011;10426;49.420;8.390;2023-01-31T07:28:21;13.50;;;9.32;;
20535;SDS011;10426;49.420;8.390;2023-01-31T07:30:48;14.15;;;10.40;;
20535;SDS011;10426;49.420;8.390;2023-01-31T07:33:16;14.30;;;9.63;;
20535;SDS011;10426;49.420;8.390;2023-01-31T07:35:42;13.25;;;9.40;;
20535;SDS011;10426;49.420;8.390;2023-01-31T07:38:10;15.45;;;9.55;;
20535;SDS011;10426;49.420;8.390;2023-01-31T07:40:37;13.35;;;9.10;;
20535;SDS011;10426;49.420;8.390;2023-01-31T07:43:04;15.55;;;9.57;;
20535;SDS011;10426;49.420;8.390;2023-01-31T07:45:31;15.40;;;9.95;;
20535;SDS011;10426;49.420;8.390;2023-01-31T07:47:57;14.83;;;9.33;;
20535;SDS011;10426;49.420;8.390;2023-01-31T07:50:24;17.83;;;9.13;;
20535;SDS011;10426;49.420;8.390;2023-01-31T07:52:55;14.93;;;8.88;;
20535;SDS011;10426;49.420;8.390;2023-01-31T07:55:23;14.63;;;9.20;;
20535;SDS011;10426;49.420;8.390;2023-01-31T07:57:50;19.30;;;9.15;;
20535;SDS011;10426;49.420;8.390;2023-01-31T08:00:17;13.57;;;8.85;;
20535;SDS011;10426;49.420;8.390;2023-01-31T08:03:00;14.93;;;8.73;;
20535;SDS011;10426;49.420;8.390;2023-01-31T08:05:44;15.43;;;8.55;;
20535;SDS011;10426;49.420;8.390;2023-01-31T08:08:12;14.00;;;8.07;;
20535;SDS011;10426;49.420;8.390;2023-01-31T08:10:39;11.82;;;8.00;;
20535;SDS011;10426;49.420;8.390;2023-01-31T08:13:06;15.30;;;7.78;;
20535;SDS011;10426;49.420;8.390;2023-01-31T08:15:35;14.63;;;7.40;;
20535;SDS011;10426;49.420;8.390;2023-01-31T08:18:02;12.50;;;7.60;;
20535;SDS011;10426;49.420;8.390;2023-01-31T08:20:29;13.27;;;7.13;;
20535;SDS011;10426;49.420;8.390;2023-01-31T08:22:55;12.67;;;7.00;;
20535;SDS011;10426;49.420;8.390;2023-01-31T08:25:23;13.27;;;7.53;;
20535;SDS011;10426;49.420;8.390;2023-01-31T08:27:52;11.75;;;7.43;;
20535;SDS011;10426;49.420;8.390;2023-01-31T08:30:18;10.27;;;6.88;;
20535;SDS011;10426;49.420;8.390;2023-01-31T08:32:45;9.73;;;7.07;;
20535;SDS011;10426;49.420;8.390;2023-01-31T08:35:12;12.82;;;7.28;;
20535;SDS011;10426;49.420;8.390;2023-01-31T08:37:38;11.57;;;7.07;;
20535;SDS011;10426;49.420;8.390;2023-01-31T08:40:06;13.02;;;7.53;;
20535;SDS011;10426;49.420;8.390;2023-01-31T08:42:32;12.40;;;7.82;;
20535;SDS011;10426;49.420;8.390;2023-01-31T08:45:00;11.43;;;7.70;;
20535;SDS011;10426;49.420;8.390;2023-01-31T08:47:27;13.30;;;7.93;;
20535;SDS011;10426;49.420;8.390;2023-01-31T08:49:53;13.57;;;8.00;;
20535;SDS011;10426;49.420;8.390;2023-01-31T08:52:20;15.25;;;8.02;;
20535;SDS011;10426;49.420;8.390;2023-01-31T08:54:47;14.00;;;7.97;;
20535;SDS011;10426;49.420;8.390;2023-01-31T08:57:13;13.40;;;7.43;;
20535;SDS011;10426;49.420;8.390;2023-01-31T08:59:40;12.70;;;7.97;;
20535;SDS011;10426;49.420;8.390;2023-01-31T09:02:09;14.98;;;8.20;;
20535;SDS011;10426;49.420;8.390;2023-01-31T09:04:36;12.27;;;7.82;;
20535;SDS011;10426;49.420;8.390;2023-01-31T09:07:03;12.38;;;7.95;;
20535;SDS011;10426;49.420;8.390;2023-01-31T09:09:29;14.20;;;8.00;;
20535;SDS011;10426;49.420;8.390;2023-01-31T09:11:56;12.85;;;8.00;;
20535;SDS011;10426;49.420;8.390;2023-01-31T09:14:23;14.93;;;9.00;;
20535;SDS011;10426;49.420;8.390;2023-01-31T09:16:49;12.52;;;8.20;;
20535;SDS011;10426;49.420;8.390;2023-01-31T09:19:18;14.40;;;7.85;;
20535;SDS011;10426;49.420;8.390;2023-01-31T09:21:44;12.00;;;8.00;;
20535;SDS011;10426;49.420;8.390;2023-01-31T09:24:11;15.07;;;8.77;;
20535;SDS011;10426;49.420;8.390;2023-01-31T09:26:37;14.63;;;8.50;;
20535;SDS011;10426;49.420;8.390;2023-01-31T09:29:04;16.42;;;8.88;;
20535;SDS011;10426;49.420;8.390;2023-01-31T09:31:31;17.67;;;9.10;;
20535;SDS011;10426;49.420;8.390;2023-01-31T09:33:57;15.73;;;8.90;;
20535;SDS011;10426;49.420;8.390;2023-01-31T09:36:26;13.55;;;8.52;;
20535;SDS011;10426;49.420;8.390;2023-01-31T09:38:53;13.48;;;7.97;;
20535;SDS011;10426;49.420;8.390;2023-01-31T09:41:22;15.68;;;9.02;;
20535;SDS011;10426;49.420;8.390;2023-01-31T09:43:51;16.70;;;8.33;;
20535;SDS011;10426;49.420;8.390;2023-01-31T09:46:18;13.30;;;8.43;;
20535;SDS011;10426;49.420;8.390;2023-01-31T09:48:47;12.88;;;8.40;;
20535;SDS011;10426;49.420;8.390;2023-01-31T09:51:14;14.05;;;8.65;;
20535;SDS011;10426;49.420;8.390;2023-01-31T09:53:43;14.15;;;8.40;;
20535;SDS011;10426;49.420;8.390;2023-01-31T09:56:12;13.07;;;8.80;;
20535;SDS011;10426;49.420;8.390;2023-01-31T09:58:41;13.43;;;8.73;;
20535;SDS011;10426;49.420;8.390;2023-01-31T10:01:13;18.65;;;8.43;;
20535;SDS011;10426;49.420;8.390;2023-01-31T10:03:49;13.95;;;8.48;;
20535;SDS011;10426;49.420;8.390;2023-01-31T10:06:20;11.98;;;8.02;;
20535;SDS011;10426;49.420;8.390;2023-01-31T10:08:50;15.25;;;7.97;;
20535;SDS011;10426;49.420;8.390;2023-01-31T10:11:22;16.77;;;7.75;;
20535;SDS011;10426;49.420;8.390;2023-01-31T10:13:53;12.63;;;7.63;;
20535;SDS011;10426;49.420;8.390;2023-01-31T10:16:23;13.82;;;7.13;;
20535;SDS011;10426;49.420;8.390;2023-01-31T10:18:53;14.93;;;7.70;;
20535;SDS011;10426;49.420;8.390;2023-01-31T10:21:23;15.48;;;7.32;;
20535;SDS011;10426;49.420;8.390;2023-01-31T10:23:53;12.73;;;7.20;;
20535;SDS011;10426;49.420;8.390;2023-01-31T10:26:22;15.53;;;7.60;;
20535;SDS011;10426;49.420;8.390;2023-01-31T10:28:52;11.82;;;7.22;;
20535;SDS011;10426;49.420;8.390;2023-01-31T10:31:25;13.63;;;7.32;;
20535;SDS011;10426;49.420;8.390;2023-01-31T10:33:54;9.53;;;6.60;;
20535;SDS011;10426;49.420;8.390;2023-01-31T10:36:23;11.25;;;6.60;;
20535;SDS011;10426;49.420;8.390;2023-01-31T10:38:58;13.25;;;6.88;;
20535;SDS011;10426;49.420;8.390;2023-01-31T10:41:30;12.82;;;6.55;;
20535;SDS011;10426;49.420;8.390;2023-01-31T10:43:58;12.07;;;6.77;;
20535;SDS011;10426;49.420;8.390;2023-01-31T10:46:25;12.55;;;6.75;;
20535;SDS011;10426;49.420;8.390;2023-01-31T10:48:52;11.45;;;6.85;;
20535;SDS011;10426;49.420;8.390;2023-01-31T10:51:23;10.55;;;6.05;;
20535;SDS011;10426;49.420;8.390;2023-01-31T10:54:02;11.80;;;6.40;;
20535;SDS011;10426;49.420;8.390;2023-01-31T10:56:31;11.63;;;6.05;;
20535;SDS011;10426;49.420;8.390;2023-01-31T10:58:59;11.93;;;6.47;;
20535;SDS011;10426;49.420;8.390;2023-01-31T11:01:27;11.85;;;6.90;;
20535;SDS011;10426;49.420;8.390;2023-01-31T11:03:54;9.98;;;6.40;;
20535;SDS011;10426;49.420;8.390;2023-01-31T11:06:22;13.57;;;6.72;;
20535;SDS011;10426;49.420;8.390;2023-01-31T11:08:49;11.75;;;6.32;;
20535;SDS011;10426;49.420;8.390;2023-01-31T11:11:19;12.95;;;6.53;;
20535;SDS011;10426;49.420;8.390;2023-01-31T11:13:55;15.37;;;6.53;;
20535;SDS011;10426;49.420;8.390;2023-01-31T11:16:22;10.60;;;6.30;;
20535;SDS011;10426;49.420;8.390;2023-01-31T11:18:49;12.95;;;6.10;;
20535;SDS011;10426;49.420;8.390;2023-01-31T11:21:20;10.40;;;5.85;;
20535;SDS011;10426;49.420;8.390;2023-01-31T11:23:48;10.73;;;5.63;;
20535;SDS011;10426;49.420;8.390;2023-01-31T11:26:25;11.25;;;5.57;;
20535;SDS011;10426;49.420;8.390;2023-01-31T11:28:52;12.05;;;6.40;;
20535;SDS011;10426;49.420;8.390;2023-01-31T11:31:19;10.80;;;6.43;;
20535;SDS011;10426;49.420;8.390;2023-01-31T11:33:54;14.10;;;6.20;;
20535;SDS011;10426;49.420;8.390;2023-01-31T11:36:21;11.65;;;5.70;;
20535;SDS011;10426;49.420;8.390;2023-01-31T11:38:48;10.07;;;6.07;;
20535;SDS011;10426;49.420;8.390;2023-01-31T11:41:30;10.27;;;6.00;;
20535;SDS011;10426;49.420;8.390;2023-01-31T11:44:07;10.47;;;5.50;;
20535;SDS011;10426;49.420;8.390;2023-01-31T11:46:39;10.60;;;6.03;;
20535;SDS011;10426;49.420;8.390;2023-01-31T11:49:09;13.35;;;5.45;;
20535;SDS011;10426;49.420;8.390;2023-01-31T11:51:36;9.32;;;6.05;;
20535;SDS011;10426;49.420;8.390;2023-01-31T11:54:04;8.63;;;5.75;;
20535;SDS011;10426;49.420;8.390;2023-01-31T11:56:34;10.38;;;6.30;;
20535;SDS011;10426;49.420;8.390;2023-01-31T11:59:03;11.73;;;6.38;;
20535;SDS011;10426;49.420;8.390;2023-01-31T12:01:31;10.83;;;7.33;;
20535;SDS011;10426;49.420;8.390;2023-01-31T12:03:59;10.23;;;7.18;;
20535;SDS011;10426;49.420;8.390;2023-01-31T12:06:28;9.87;;;6.83;;
20535;SDS011;10426;49.420;8.390;2023-01-31T12:08:57;12.43;;;7.07;;
20535;SDS011;10426;49.420;8.390;2023-01-31T12:11:26;13.50;;;7.35;;
20535;SDS011;10426;49.420;8.390;2023-01-31T12:14:00;13.23;;;7.55;;
20535;SDS011;10426;49.420;8.390;2023-01-31T12:16:28;8.85;;;7.03;;
20535;SDS011;10426;49.420;8.390;2023-01-31T12:18:59;10.65;;;6.72;;
20535;SDS011;10426;49.420;8.390;2023-01-31T12:21:32;10.32;;;7.30;;
20535;SDS011;10426;49.420;8.390;2023-01-31T12:24:02;9.48;;;6.70;;
20535;SDS011;10426;49.420;8.390;2023-01-31T12:26:32;9.10;;;6.78;;
20535;SDS011;10426;49.420;8.390;2023-01-31T12:29:05;8.38;;;6.40;;
20535;SDS011;10426;49.420;8.390;2023-01-31T12:31:46;8.05;;;5.65;;
20535;SDS011;10426;49.420;8.390;2023-01-31T12:34:26;8.30;;;6.18;;
20535;SDS011;10426;49.420;8.390;2023-01-31T12:37:04;8.65;;;6.18;;
20535;SDS011;10426;49.420;8.390;2023-01-31T12:39:36;8.13;;;5.93;;
20535;SDS011;10426;49.420;8.390;2023-01-31T12:42:11;8.95;;;5.90;;
20535;SDS011;10426;49.420;8.390;2023-01-31T12:44:43;9.75;;;6.82;;
20535;SDS011;10426;49.420;8.390;2023-01-31T12:47:16;8.23;;;5.82;;
20535;SDS011;10426;49.420;8.390;2023-01-31T12:49:47;7.07;;;5.80;;
20535;SDS011;10426;49.420;8.390;2023-01-31T12:52:17;8.43;;;6.00;;
20535;SDS011;10426;49.420;8.390;2023-01-31T12:54:49;7.82;;;6.03;;
20535;SDS011;10426;49.420;8.390;2023-01-31T12:57:23;8.53;;;5.80;;
20535;SDS011;10426;49.420;8.390;2023-01-31T12:59:55;8.50;;;6.30;;
20535;SDS011;10426;49.420;8.390;2023-01-31T13:02:30;8.65;;;5.82;;
20535;SDS011;10426;49.420;8.390;2023-01-31T13:05:00;11.80;;;6.68;;
20535;SDS011;10426;49.420;8.390;2023-01-31T13:07:29;8.05;;;6.18;;
20535;SDS011;10426;49.420;8.390;2023-01-31T13:09:58;8.50;;;6.35;;
20535;SDS011;10426;49.420;8.390;2023-01-31T13:12:26;9.45;;;5.90;;
20535;SDS011;10426;49.420;8.390;2023-01-31T13:14:57;9.07;;;6.00;;
20535;SDS011;10426;49.420;8.390;2023-01-31T13:17:28;8.45;;;6.50;;
20535;SDS011;10426;49.420;8.390;2023-01-31T13:19:56;8.63;;;6.13;;
20535;SDS011;10426;49.420;8.390;2023-01-31T13:22:24;8.30;;;6.38;;
20535;SDS011;10426;49.420;8.390;2023-01-31T13:24:56;9.00;;;6.00;;
20535;SDS011;10426;49.420;8.390;2023-01-31T13:27:25;8.20;;;6.53;;
20535;SDS011;10426;49.420;8.390;2023-01-31T13:29:55;8.13;;;6.53;;
20535;SDS011;10426;49.420;8.390;2023-01-31T13:32:26;8.68;;;6.38;;
20535;SDS011;10426;49.420;8.390;2023-01-31T13:34:54;9.02;;;6.18;;
20535;SDS011;10426;49.420;8.390;2023-01-31T13:37:22;8.30;;;6.70;;
20535;SDS011;10426;49.420;8.390;2023-01-31T13:39:55;7.88;;;6.80;;
20535;SDS011;10426;49.420;8.390;2023-01-31T13:42:23;8.10;;;6.75;;
20535;SDS011;10426;49.420;8.390;2023-01-31T13:44:51;8.38;;;6.88;;
20535;SDS011;10426;49.420;8.390;2023-01-31T13:47:19;8.57;;;6.75;;
20535;SDS011;10426;49.420;8.390;2023-01-31T13:49:49;8.35;;;6.53;;
20535;SDS011;10426;49.420;8.390;2023-01-31T13:52:18;8.10;;;6.50;;
20535;SDS011;10426;49.420;8.390;2023-01-31T13:54:47;8.35;;;6.72;;
20535;SDS011;10426;49.420;8.390;2023-01-31T13:57:19;8.38;;;6.30;;
20535;SDS011;10426;49.420;8.390;2023-01-31T13:59:50;7.30;;;6.50;;
20535;SDS011;10426;49.420;8.390;2023-01-31T14:02:17;8.68;;;6.65;;
20535;SDS011;10426;49.420;8.390;2023-01-31T14:04:44;8.35;;;6.35;;
20535;SDS011;10426;49.420;8.390;2023-01-31T14:07:14;12.88;;;6.47;;
20535;SDS011;10426;49.420;8.390;2023-01-31T14:09:43;9.90;;;7.00;;
20535;SDS011;10426;49.420;8.390;2023-01-31T14:12:29;8.02;;;6.50;;
20535;SDS011;10426;49.420;8.390;2023-01-31T14:14:56;7.30;;;6.20;;
20535;SDS011;10426;49.420;8.390;2023-01-31T14:20:05;9.88;;;6.57;;
20535;SDS011;10426;49.420;8.390;2023-01-31T14:22:34;8.90;;;6.28;;
20535;SDS011;10426;49.420;8.390;2023-01-31T14:25:02;7.35;;;6.20;;
20535;SDS011;10426;49.420;8.390;2023-01-31T14:27:33;9.00;;;6.40;;
20535;SDS011;10426;49.420;8.390;2023-01-31T14:32:43;8.83;;;6.33;;
20535;SDS011;10426;49.420;8.390;2023-01-31T14:35:22;8.40;;;6.07;;
20535;SDS011;10426;49.420;8.390;2023-01-31T14:37:52;7.82;;;6.40;;
20535;SDS011;10426;49.420;8.390;2023-01-31T14:40:22;8.10;;;6.45;;
20535;SDS011;10426;49.420;8.390;2023-01-31T14:42:56;8.20;;;6.30;;
20535;SDS011;10426;49.420;8.390;2023-01-31T14:45:35;8.80;;;6.45;;
20535;SDS011;10426;49.420;8.390;2023-01-31T14:48:11;9.30;;;6.57;;
20535;SDS011;10426;49.420;8.390;2023-01-31T14:50:42;9.38;;;6.10;;
20535;SDS011;10426;49.420;8.390;2023-01-31T14:53:17;9.57;;;6.13;;